createdAt,value
2023-02-04T00:00:02.580Z,24.98
2023-02-04T00:02:29.862Z,38.33
2023-02-04T00:04:57.112Z,18.88
2023-02-04T00:07:24.291Z,24.80
2023-02-04T00:09:53.772Z,16.00
2023-02-04T00:12:21.018Z,16.77
2023-02-04T00:14:48.282Z,15.05
2023-02-04T00:17:15.607Z,16.98
2023-02-04T00:19:43.133Z,10.55
2023-02-04T00:22:13.823Z,13.70
2023-02-04T00:24:43.081Z,12.50
2023-02-04T00:27:10.285Z,15.85
2023-02-04T00:29:40.086Z,19.05
2023-02-04T00:32:07.381Z,14.00
2023-02-04T00:34:36.948Z,10.52
2023-02-04T00:37:04.262Z,10.65
2023-02-04T00:39:31.649Z,15.90
2023-02-04T00:41:58.836Z,18.52
2023-02-04T00:44:26.065Z,13.32
2023-02-04T00:46:53.245Z,13.75
2023-02-04T00:49:20.409Z,10.93
2023-02-04T00:51:50.232Z,11.18
2023-02-04T00:54:17.407Z,11.35
2023-02-04T00:56:47.199Z,13.15
2023-02-04T00:59:14.816Z,9.05
2023-02-04T01:01:44.905Z,10.52
2023-02-04T01:04:12.230Z,10.10
2023-02-04T01:06:39.440Z,11.80
2023-02-04T01:09:12.804Z,9.23
2023-02-04T01:11:40.260Z,13.15
2023-02-04T01:14:07.473Z,14.15
2023-02-04T01:16:34.846Z,11.23
2023-02-04T01:19:05.080Z,17.55
2023-02-04T01:21:32.459Z,16.40
2023-02-04T01:23:59.870Z,13.38
2023-02-04T01:26:27.138Z,12.43
2023-02-04T01:28:54.352Z,18.52
2023-02-04T01:31:21.821Z,19.63
2023-02-04T01:33:49.162Z,16.85
2023-02-04T01:36:21.672Z,17.25
2023-02-04T01:38:49.432Z,11.20
2023-02-04T01:41:17.372Z,17.13
2023-02-04T01:43:44.788Z,17.65
2023-02-04T01:46:12.078Z,13.02
2023-02-04T01:48:39.300Z,12.70
2023-02-04T01:51:08.304Z,12.02
2023-02-04T01:53:35.985Z,7.63
2023-02-04T01:56:08.136Z,9.82
2023-02-04T01:58:35.421Z,11.50
2023-02-04T02:01:02.791Z,17.67
2023-02-04T02:03:30.060Z,12.68
2023-02-04T02:05:57.315Z,8.55
2023-02-04T02:08:24.553Z,9.80
2023-02-04T02:10:52.743Z,17.00
2023-02-04T02:13:20.551Z,14.07
2023-02-04T02:15:48.623Z,11.27
2023-02-04T02:18:16.541Z,19.63
2023-02-04T02:20:43.950Z,19.60
2023-02-04T02:23:20.123Z,28.13
2023-02-04T02:25:47.738Z,16.58
2023-02-04T02:28:16.777Z,15.98
2023-02-04T02:30:49.208Z,25.30
2023-02-04T02:33:17.970Z,29.90
2023-02-04T02:35:48.412Z,25.55
2023-02-04T02:38:16.841Z,9.60
2023-02-04T02:40:44.623Z,12.02
2023-02-04T02:43:16.581Z,13.13
2023-02-04T02:45:44.448Z,11.93
2023-02-04T02:48:12.195Z,16.25
2023-02-04T02:50:39.736Z,20.58
2023-02-04T02:53:11.597Z,18.20
2023-02-04T02:55:38.951Z,21.30
2023-02-04T02:58:06.900Z,21.70
2023-02-04T03:00:34.421Z,21.83
2023-02-04T03:03:07.907Z,28.63
2023-02-04T03:05:37.720Z,18.50
2023-02-04T03:08:05.296Z,29.30
2023-02-04T03:10:33.118Z,19.85
2023-02-04T03:13:00.786Z,13.15
2023-02-04T03:15:28.146Z,23.75
2023-02-04T03:17:58.490Z,17.02
2023-02-04T03:20:26.478Z,28.83
2023-02-04T03:22:53.958Z,28.08
2023-02-04T03:25:24.568Z,21.13
2023-02-04T03:27:54.177Z,16.85
2023-02-04T03:30:21.980Z,25.20
2023-02-04T03:32:49.663Z,15.65
2023-02-04T03:35:16.977Z,24.52
2023-02-04T03:37:44.232Z,20.33
2023-02-04T03:40:12.113Z,15.25
2023-02-04T03:42:39.394Z,22.10
2023-02-04T03:45:06.804Z,24.17
2023-02-04T03:47:34.143Z,15.85
2023-02-04T03:50:01.470Z,17.23
2023-02-04T03:52:28.795Z,22.23
2023-02-04T03:54:56.087Z,25.08
2023-02-04T03:57:23.362Z,27.77
2023-02-04T03:59:50.635Z,23.15
2023-02-04T04:02:17.848Z,33.22
2023-02-04T04:04:45.109Z,21.30
2023-02-04T04:07:12.371Z,15.40
2023-02-04T04:09:39.610Z,32.75
2023-02-04T04:12:06.920Z,22.90
2023-02-04T04:14:34.257Z,35.72
2023-02-04T04:17:01.484Z,30.60
2023-02-04T04:19:28.797Z,19.52
2023-02-04T04:21:56.106Z,35.70
2023-02-04T04:24:23.335Z,30.67
2023-02-04T04:26:50.527Z,31.23
2023-02-04T04:29:17.858Z,27.58
2023-02-04T04:31:45.182Z,18.77
2023-02-04T04:34:12.494Z,18.25
2023-02-04T04:36:39.786Z,36.95
2023-02-04T04:39:07.041Z,41.15
2023-02-04T04:41:34.227Z,24.00
2023-02-04T04:44:01.678Z,33.42
2023-02-04T04:46:28.942Z,33.97
2023-02-04T04:48:56.210Z,30.50
2023-02-04T04:51:23.574Z,19.85
2023-02-04T04:53:50.853Z,33.60
2023-02-04T04:56:19.278Z,24.90
2023-02-04T04:58:46.499Z,24.77
2023-02-04T05:01:13.818Z,24.05
2023-02-04T05:03:41.220Z,34.83
2023-02-04T05:06:09.444Z,34.58
2023-02-04T05:08:36.660Z,34.17
2023-02-04T05:11:04.521Z,30.17
2023-02-04T05:13:31.726Z,34.50
2023-02-04T05:15:59.208Z,21.65
2023-02-04T05:18:26.479Z,37.88
2023-02-04T05:20:53.760Z,41.47
2023-02-04T05:23:21.023Z,41.10
2023-02-04T05:25:48.261Z,25.50
2023-02-04T05:28:15.473Z,38.17
2023-02-04T05:30:42.809Z,26.60
2023-02-04T05:33:10.209Z,24.20
2023-02-04T05:35:37.418Z,44.95
2023-02-04T05:38:04.712Z,24.02
2023-02-04T05:40:32.226Z,26.00
2023-02-04T05:42:59.605Z,28.27
2023-02-04T05:45:26.834Z,46.72
2023-02-04T05:47:54.157Z,32.35
2023-02-04T05:50:21.432Z,40.80
2023-02-04T05:52:48.680Z,39.83
2023-02-04T05:55:15.908Z,58.90
2023-02-04T05:57:43.207Z,57.83
2023-02-04T06:00:12.297Z,33.00
2023-02-04T06:02:39.652Z,50.03
2023-02-04T06:05:07.207Z,38.80
2023-02-04T06:07:34.419Z,44.67
2023-02-04T06:10:01.695Z,60.97
2023-02-04T06:12:29.063Z,42.13
2023-02-04T06:14:56.428Z,39.25
2023-02-04T06:17:23.765Z,50.05
2023-02-04T06:19:51.050Z,62.80
2023-02-04T06:22:18.399Z,48.88
2023-02-04T06:24:47.402Z,59.42
2023-02-04T06:27:14.949Z,43.35
2023-02-04T06:29:42.192Z,28.88
2023-02-04T06:32:09.406Z,52.65
2023-02-04T06:34:38.987Z,36.42
2023-02-04T06:37:06.257Z,60.80
2023-02-04T06:39:33.529Z,51.10
2023-02-04T06:42:00.777Z,48.40
2023-02-04T06:44:28.198Z,50.30
2023-02-04T06:46:55.428Z,28.52
2023-02-04T06:49:23.965Z,54.88
2023-02-04T06:51:51.488Z,53.97
2023-02-04T06:54:19.169Z,54.60
2023-02-04T06:56:46.923Z,57.17
2023-02-04T06:59:14.251Z,44.28
2023-02-04T07:01:41.524Z,26.38
2023-02-04T07:04:08.814Z,54.72
2023-02-04T07:06:36.088Z,28.88
2023-02-04T07:09:03.438Z,43.30
2023-02-04T07:11:30.727Z,42.88
2023-02-04T07:13:58.073Z,36.58
2023-02-04T07:16:25.360Z,23.98
2023-02-04T07:18:52.803Z,17.52
2023-02-04T07:21:20.158Z,23.35
2023-02-04T07:23:48.124Z,39.90
2023-02-04T07:26:15.490Z,50.92
2023-02-04T07:28:43.607Z,27.10
2023-02-04T07:31:10.983Z,33.42
2023-02-04T07:33:38.297Z,35.00
2023-02-04T07:36:05.677Z,49.55
2023-02-04T07:38:32.977Z,44.45
2023-02-04T07:41:00.280Z,19.20
2023-02-04T07:43:27.693Z,23.25
2023-02-04T07:45:55.030Z,29.75
2023-02-04T07:48:22.306Z,37.60
2023-02-04T07:50:49.587Z,24.27
2023-02-04T07:53:16.785Z,28.70
2023-02-04T07:55:44.714Z,34.08
2023-02-04T07:58:11.973Z,19.13
2023-02-04T08:00:39.259Z,27.40
2023-02-04T08:03:06.595Z,50.97
2023-02-04T08:05:33.933Z,60.05
2023-02-04T08:08:02.103Z,30.98
2023-02-04T08:10:29.576Z,32.00
2023-02-04T08:12:57.168Z,28.90
2023-02-04T08:15:24.427Z,32.65
2023-02-04T08:17:51.689Z,36.92
2023-02-04T08:20:19.008Z,25.02
2023-02-04T08:22:48.536Z,19.67
2023-02-04T08:25:15.937Z,17.40
2023-02-04T08:27:43.362Z,13.88
2023-02-04T08:30:10.953Z,22.95
2023-02-04T08:32:39.400Z,17.88
2023-02-04T08:35:09.201Z,15.02
2023-02-04T08:37:36.500Z,24.17
2023-02-04T08:40:06.646Z,42.92
2023-02-04T08:42:34.914Z,24.88
2023-02-04T08:45:02.408Z,25.83
2023-02-04T08:47:29.650Z,34.30
2023-02-04T08:49:56.885Z,45.55
2023-02-04T08:52:26.652Z,5.50
2023-02-04T08:54:53.945Z,7.13
2023-02-04T08:57:24.337Z,7.07
2023-02-04T08:59:51.560Z,9.52
2023-02-04T09:02:18.868Z,101.95
2023-02-04T09:04:46.142Z,61.97
2023-02-04T09:07:13.382Z,67.57
2023-02-04T09:09:42.828Z,102.95
2023-02-04T09:12:10.143Z,70.80
2023-02-04T09:14:37.458Z,96.13
2023-02-04T09:17:06.022Z,77.43
2023-02-04T09:19:33.401Z,43.47
2023-02-04T09:22:00.704Z,10.75
2023-02-04T09:24:28.246Z,26.15
2023-02-04T09:26:55.619Z,12.52
2023-02-04T09:29:22.988Z,15.75
2023-02-04T09:31:50.469Z,19.20
2023-02-04T09:34:17.862Z,15.20
2023-02-04T09:36:45.148Z,16.40
2023-02-04T09:39:12.521Z,6.18
2023-02-04T09:41:40.862Z,20.98
2023-02-04T09:44:15.484Z,12.80
2023-02-04T09:46:45.522Z,9.02
2023-02-04T09:49:14.009Z,14.82
2023-02-04T09:51:42.102Z,6.53
2023-02-04T09:54:13.975Z,6.20
2023-02-04T09:56:41.485Z,5.65
2023-02-04T09:59:13.313Z,6.10
2023-02-04T10:01:40.970Z,19.45
2023-02-04T10:04:13.145Z,4.97
2023-02-04T10:06:40.968Z,5.82
2023-02-04T10:09:10.452Z,5.28
2023-02-04T10:11:38.853Z,3.45
2023-02-04T10:14:15.213Z,4.13
2023-02-04T10:16:43.738Z,3.83
2023-02-04T10:19:15.046Z,5.03
2023-02-04T10:21:43.685Z,3.72
2023-02-04T10:24:22.777Z,4.68
2023-02-04T10:26:50.030Z,3.70
2023-02-04T10:29:18.582Z,4.32
2023-02-04T10:31:47.284Z,4.00
2023-02-04T10:34:18.415Z,3.67
2023-02-04T10:36:47.451Z,3.45
2023-02-04T10:39:14.768Z,3.55
2023-02-04T10:41:46.288Z,3.35
2023-02-04T10:44:15.224Z,4.20
2023-02-04T10:46:42.704Z,2.25
2023-02-04T10:49:18.183Z,1.90
2023-02-04T10:51:45.569Z,2.47
2023-02-04T10:54:32.027Z,2.08
2023-02-04T10:57:00.740Z,2.10
2023-02-04T10:59:29.111Z,3.33
2023-02-04T11:01:57.818Z,2.90
2023-02-04T11:04:25.544Z,4.18
2023-02-04T11:06:53.231Z,4.45
2023-02-04T11:09:20.722Z,4.43
2023-02-04T11:11:49.365Z,3.63
2023-02-04T11:14:24.194Z,3.40
2023-02-04T11:16:51.592Z,4.20
2023-02-04T11:19:31.413Z,3.05
2023-02-04T11:22:05.717Z,2.28
2023-02-04T11:24:34.443Z,1.90
2023-02-04T11:27:19.871Z,1.85
2023-02-04T11:29:48.066Z,1.80
2023-02-04T11:32:30.722Z,1.80
2023-02-04T11:35:18.222Z,1.77
2023-02-04T11:37:46.281Z,1.60
2023-02-04T11:40:32.208Z,1.95
2023-02-04T11:42:59.495Z,1.77
2023-02-04T11:45:36.585Z,1.55
2023-02-04T11:48:10.245Z,1.50
2023-02-04T11:50:41.752Z,1.60
2023-02-04T11:53:12.635Z,1.80
2023-02-04T11:55:47.633Z,1.90
2023-02-04T11:58:16.517Z,1.70
2023-02-04T12:00:44.683Z,2.60
2023-02-04T12:03:26.081Z,1.58
2023-02-04T12:05:56.786Z,1.50
2023-02-04T12:08:24.075Z,1.80
2023-02-04T12:10:52.369Z,1.60
2023-02-04T12:13:24.464Z,1.58
2023-02-04T12:16:08.296Z,1.70
2023-02-04T12:18:35.871Z,1.60
2023-02-04T12:21:04.525Z,1.60
2023-02-04T12:23:32.133Z,1.50
2023-02-04T12:25:59.478Z,1.83
2023-02-04T12:28:28.122Z,1.90
2023-02-04T12:30:56.001Z,1.70
2023-02-04T12:33:23.721Z,1.80
2023-02-04T12:35:50.985Z,1.83
2023-02-04T12:38:20.398Z,2.05
2023-02-04T12:40:47.885Z,4.70
2023-02-04T12:43:15.174Z,1.75
2023-02-04T12:45:45.866Z,1.83
2023-02-04T12:48:14.239Z,1.77
2023-02-04T12:50:41.748Z,1.83
2023-02-04T12:53:09.051Z,1.30
2023-02-04T12:55:36.553Z,1.48
2023-02-04T12:58:03.940Z,1.70
2023-02-04T13:00:31.257Z,1.65
2023-02-04T13:03:01.316Z,1.63
2023-02-04T13:05:28.676Z,1.70
2023-02-04T13:07:56.136Z,1.63
2023-02-04T13:10:24.108Z,1.90
2023-02-04T13:12:51.901Z,1.67
2023-02-04T13:15:19.693Z,1.80
2023-02-04T13:17:47.014Z,1.70
2023-02-04T13:20:14.459Z,1.30
2023-02-04T13:22:41.777Z,1.50
2023-02-04T13:25:11.598Z,1.77
2023-02-04T13:27:39.984Z,1.80
2023-02-04T13:30:08.187Z,1.35
2023-02-04T13:32:35.758Z,1.50
2023-02-04T13:35:03.049Z,2.58
2023-02-04T13:37:30.521Z,1.60
2023-02-04T13:39:57.772Z,1.90
2023-02-04T13:42:25.144Z,1.50
2023-02-04T13:44:52.591Z,1.77
2023-02-04T13:47:19.965Z,1.60
2023-02-04T13:49:47.538Z,1.63
2023-02-04T13:52:15.074Z,1.40
2023-02-04T13:54:42.377Z,1.70
2023-02-04T13:57:09.651Z,1.60
2023-02-04T13:59:36.916Z,2.00
2023-02-04T14:02:04.249Z,2.03
2023-02-04T14:04:31.532Z,1.38
2023-02-04T14:06:58.877Z,1.60
2023-02-04T14:09:26.786Z,1.50
2023-02-04T14:11:54.040Z,1.70
2023-02-04T14:14:21.320Z,2.03
2023-02-04T14:16:48.735Z,1.75
2023-02-04T14:19:16.151Z,1.75
2023-02-04T14:21:43.469Z,2.15
2023-02-04T14:24:10.830Z,2.03
2023-02-04T14:26:38.163Z,1.67
2023-02-04T14:29:07.170Z,2.03
2023-02-04T14:31:36.676Z,1.90
2023-02-04T14:34:04.077Z,1.75
2023-02-04T14:36:31.446Z,2.10
2023-02-04T14:38:58.709Z,2.42
2023-02-04T14:41:26.535Z,3.30
2023-02-04T14:43:54.810Z,2.67
2023-02-04T14:46:22.156Z,3.28
2023-02-04T14:48:52.067Z,1.95
2023-02-04T14:51:19.732Z,3.03
2023-02-04T14:53:48.716Z,2.42
2023-02-04T14:56:16.229Z,2.30
2023-02-04T14:58:43.488Z,2.45
2023-02-04T15:01:10.796Z,3.00
2023-02-04T15:03:38.284Z,2.65
2023-02-04T15:06:05.711Z,2.72
2023-02-04T15:08:33.003Z,2.72
2023-02-04T15:11:00.660Z,2.10
2023-02-04T15:13:29.397Z,1.80
2023-02-04T15:15:56.623Z,1.80
2023-02-04T15:18:24.099Z,1.75
2023-02-04T15:20:51.315Z,1.80
2023-02-04T15:23:18.614Z,1.90
2023-02-04T15:25:47.262Z,2.78
2023-02-04T15:28:14.668Z,2.08
2023-02-04T15:30:42.108Z,2.33
2023-02-04T15:33:09.669Z,2.22
2023-02-04T15:35:36.945Z,2.13
2023-02-04T15:38:04.204Z,2.13
2023-02-04T15:40:31.950Z,2.58
2023-02-04T15:42:59.368Z,3.20
2023-02-04T15:45:26.601Z,2.75
2023-02-04T15:47:53.910Z,2.85
2023-02-04T15:50:21.206Z,2.80
2023-02-04T15:52:48.506Z,2.78
2023-02-04T15:55:15.802Z,3.78
2023-02-04T15:57:43.021Z,3.38
2023-02-04T16:00:10.604Z,3.63
2023-02-04T16:02:37.972Z,3.33
2023-02-04T16:05:06.045Z,4.03
2023-02-04T16:07:33.279Z,4.65
2023-02-04T16:10:00.559Z,3.97
2023-02-04T16:12:29.548Z,3.13
2023-02-04T16:14:56.811Z,4.50
2023-02-04T16:17:24.141Z,3.60
2023-02-04T16:19:51.377Z,3.53
2023-02-04T16:22:19.600Z,3.67
2023-02-04T16:24:46.903Z,5.03
2023-02-04T16:27:14.227Z,5.03
2023-02-04T16:29:41.474Z,5.72
2023-02-04T16:32:08.855Z,7.53
2023-02-04T16:34:36.247Z,6.65
2023-02-04T16:37:03.488Z,7.20
2023-02-04T16:39:30.793Z,5.85
2023-02-04T16:41:58.079Z,7.40
2023-02-04T16:44:25.349Z,8.05
2023-02-04T16:46:52.734Z,5.53
2023-02-04T16:49:20.033Z,5.40
2023-02-04T16:51:47.316Z,5.40
2023-02-04T16:54:14.625Z,5.15
2023-02-04T16:56:41.950Z,5.70
2023-02-04T16:59:09.253Z,5.93
2023-02-04T17:01:36.852Z,5.18
2023-02-04T17:07:48.273Z,9.37
2023-02-04T17:10:15.623Z,7.43
2023-02-04T17:12:42.887Z,6.80
2023-02-04T17:15:10.318Z,4.95
2023-02-04T17:17:38.733Z,5.97
2023-02-04T17:20:06.101Z,5.28
2023-02-04T17:22:33.375Z,7.03
2023-02-04T17:25:00.614Z,6.70
2023-02-04T17:27:27.882Z,5.88
2023-02-04T17:29:55.138Z,7.43
2023-02-04T17:32:22.418Z,5.82
2023-02-04T17:34:50.867Z,8.48
2023-02-04T17:37:18.122Z,6.35
2023-02-04T17:39:45.358Z,5.85
2023-02-04T17:42:12.605Z,4.70
2023-02-04T17:44:39.941Z,5.95
2023-02-04T17:47:07.275Z,6.53
2023-02-04T17:49:35.134Z,5.25
2023-02-04T17:52:02.485Z,6.55
2023-02-04T17:54:29.875Z,6.15
2023-02-04T17:56:58.077Z,6.10
2023-02-04T17:59:26.113Z,7.03
2023-02-04T18:01:54.198Z,6.43
2023-02-04T18:04:21.729Z,6.35
2023-02-04T18:06:50.940Z,8.10
2023-02-04T18:09:18.862Z,6.60
2023-02-04T18:11:46.223Z,4.55
2023-02-04T18:14:15.555Z,5.75
2023-02-04T18:16:43.180Z,6.07
2023-02-04T18:19:28.172Z,7.35
2023-02-04T18:21:56.046Z,6.80
2023-02-04T18:24:35.976Z,6.28
2023-02-04T18:27:09.869Z,6.75
2023-02-04T18:29:38.097Z,5.85
2023-02-04T18:32:13.005Z,5.50
2023-02-04T18:34:41.919Z,7.22
2023-02-04T18:37:24.368Z,6.97
2023-02-04T18:39:51.655Z,4.80
2023-02-04T18:42:22.859Z,5.15
2023-02-04T18:44:50.279Z,5.15
2023-02-04T18:47:27.602Z,6.10
2023-02-04T18:49:54.931Z,5.35
2023-02-04T18:52:22.669Z,5.13
2023-02-04T18:55:39.883Z,6.43
2023-02-04T18:58:29.421Z,5.72
2023-02-04T19:00:59.627Z,5.43
2023-02-04T19:03:28.821Z,7.82
2023-02-04T19:05:57.413Z,6.05
2023-02-04T19:08:27.764Z,6.47
2023-02-04T19:10:56.545Z,5.97
2023-02-04T19:13:33.007Z,7.03
2023-02-04T19:16:03.650Z,7.30
2023-02-04T19:18:34.072Z,7.93
2023-02-04T19:21:08.632Z,7.28
2023-02-04T19:23:37.887Z,6.00
2023-02-04T19:26:22.519Z,6.68
2023-02-04T19:28:51.332Z,9.30
2023-02-04T19:31:18.855Z,9.98
2023-02-04T19:33:46.150Z,10.45
2023-02-04T19:36:42.725Z,10.40
2023-02-04T19:39:19.259Z,8.40
2023-02-04T19:41:50.910Z,8.45
2023-02-04T19:44:41.153Z,7.93
2023-02-04T19:47:20.635Z,8.52
2023-02-04T19:49:47.900Z,8.32
2023-02-04T19:52:29.986Z,7.72
2023-02-04T19:55:01.131Z,9.70
2023-02-04T19:57:29.242Z,10.50
2023-02-04T19:59:56.990Z,10.13
2023-02-04T20:02:35.766Z,8.80
2023-02-04T20:05:14.349Z,8.77
2023-02-04T20:07:41.646Z,10.10
2023-02-04T20:10:08.993Z,8.50
2023-02-04T20:12:36.770Z,10.02
2023-02-04T20:15:17.677Z,9.88
2023-02-04T20:17:49.225Z,9.27
2023-02-04T20:20:16.437Z,10.02
2023-02-04T20:22:48.342Z,10.43
2023-02-04T20:25:21.886Z,11.05
2023-02-04T20:27:55.346Z,11.63
2023-02-04T20:30:26.410Z,10.30
2023-02-04T20:32:57.621Z,11.43
2023-02-04T20:35:34.076Z,11.23
2023-02-04T20:38:08.762Z,11.23
2023-02-04T20:40:36.745Z,11.38
2023-02-04T20:43:07.109Z,12.82
2023-02-04T20:45:39.178Z,11.30
2023-02-04T20:48:27.398Z,10.75
2023-02-04T20:50:56.505Z,11.77
2023-02-04T20:53:25.798Z,12.15
2023-02-04T20:56:03.963Z,12.48
2023-02-04T20:58:38.582Z,12.52
2023-02-04T21:01:18.155Z,13.27
2023-02-04T21:03:46.004Z,14.00
2023-02-04T21:06:35.245Z,12.32
2023-02-04T21:09:04.443Z,12.10
2023-02-04T21:11:31.656Z,11.35
2023-02-04T21:13:59.139Z,13.30
2023-02-04T21:16:26.353Z,12.85
2023-02-04T21:18:54.793Z,12.77
2023-02-04T21:21:24.601Z,14.02
2023-02-04T21:23:51.949Z,13.05
2023-02-04T21:26:19.247Z,13.35
2023-02-04T21:28:46.558Z,13.57
2023-02-04T21:31:14.021Z,12.77
2023-02-04T21:33:41.453Z,14.82
2023-02-04T21:36:09.098Z,11.80
2023-02-04T21:38:36.331Z,12.85
2023-02-04T21:41:03.649Z,13.95
2023-02-04T21:43:30.957Z,13.25
2023-02-04T21:45:58.363Z,13.45
2023-02-04T21:48:25.858Z,13.60
2023-02-04T21:50:54.140Z,14.73
2023-02-04T21:53:21.485Z,15.35
2023-02-04T21:55:48.920Z,14.70
2023-02-04T21:58:16.187Z,14.65
2023-02-04T22:00:43.552Z,14.88
2023-02-04T22:03:15.808Z,15.60
2023-02-04T22:05:43.559Z,15.17
2023-02-04T22:08:13.803Z,14.82
2023-02-04T22:10:41.271Z,14.18
2023-02-04T22:13:30.368Z,17.85
2023-02-04T22:16:00.398Z,15.15
2023-02-04T22:18:28.391Z,16.10
2023-02-04T22:20:56.940Z,17.10
2023-02-04T22:23:24.247Z,16.33
2023-02-04T22:25:51.570Z,19.48
2023-02-04T22:28:19.007Z,18.48
2023-02-04T22:30:46.370Z,20.77
2023-02-04T22:33:14.243Z,22.75
2023-02-04T22:35:41.570Z,19.73
2023-02-04T22:38:09.087Z,26.55
2023-02-04T22:40:45.110Z,26.00
2023-02-04T22:43:12.378Z,32.78
2023-02-04T22:45:39.739Z,41.60
2023-02-04T22:48:07.221Z,42.67
2023-02-04T22:50:34.548Z,54.67
2023-02-04T22:53:01.766Z,69.90
2023-02-04T22:55:29.061Z,56.47
2023-02-04T22:57:57.453Z,51.05
2023-02-04T23:00:24.847Z,65.35
2023-02-04T23:02:52.233Z,48.28
2023-02-04T23:05:19.410Z,66.28
2023-02-04T23:07:46.748Z,39.22
2023-02-04T23:10:18.809Z,37.97
2023-02-04T23:12:46.114Z,31.88
2023-02-04T23:15:13.427Z,47.33
2023-02-04T23:17:40.858Z,66.45
2023-02-04T23:20:10.972Z,92.90
2023-02-04T23:22:38.394Z,92.13
2023-02-04T23:25:06.647Z,77.30
2023-02-04T23:27:34.139Z,101.05
2023-02-04T23:30:04.633Z,74.05
2023-02-04T23:32:32.166Z,78.85
2023-02-04T23:34:59.611Z,94.40
2023-02-04T23:37:26.896Z,94.20
2023-02-04T23:40:03.789Z,68.97
2023-02-04T23:42:36.725Z,115.25
2023-02-04T23:45:04.184Z,235.40
2023-02-04T23:47:31.479Z,123.45
2023-02-04T23:50:08.989Z,282.50
2023-02-04T23:52:44.765Z,90.53
2023-02-04T23:55:12.179Z,104.30
2023-02-04T23:57:39.413Z,81.80
